createdAt,value
2019-04-16T00:01:50.200Z,4.17
2019-04-16T00:05:10.387Z,4.20
2019-04-16T00:08:26.444Z,4.60
2019-04-16T00:11:03.740Z,4.57
2019-04-16T00:17:03.372Z,3.93
2019-04-16T00:19:52.151Z,4.23
2019-04-16T00:22:39.132Z,3.63
2019-04-16T00:25:26.880Z,4.00
2019-04-16T00:28:20.039Z,4.80
2019-04-16T00:31:06.947Z,5.03
2019-04-16T00:33:54.226Z,4.53
2019-04-16T00:36:41.109Z,4.23
2019-04-16T00:39:31.594Z,5.27
2019-04-16T00:42:22.381Z,5.47
2019-04-16T00:48:16.137Z,4.47
2019-04-16T00:51:02.672Z,4.90
2019-04-16T00:53:50.377Z,4.63
2019-04-16T00:56:37.571Z,4.97
2019-04-16T01:02:38.230Z,4.87
2019-04-16T01:08:31.193Z,6.62
2019-04-16T01:11:18.516Z,5.40
2019-04-16T01:14:05.508Z,5.67
2019-04-16T01:16:53.467Z,5.37
2019-04-16T01:19:41.937Z,6.15
2019-04-16T01:22:30.107Z,5.30
2019-04-16T01:25:20.321Z,4.87
2019-04-16T01:31:26.957Z,4.90
2019-04-16T01:34:32.005Z,5.13
2019-04-16T01:37:20.087Z,4.77
2019-04-16T01:40:07.146Z,6.70
2019-04-16T01:42:54.607Z,6.07
2019-04-16T01:45:44.640Z,5.87
2019-04-16T01:51:41.241Z,5.20
2019-04-16T01:54:28.701Z,5.33
2019-04-16T01:57:16.551Z,6.72
2019-04-16T02:00:06.761Z,5.70
2019-04-16T02:02:50.365Z,7.50
2019-04-16T02:05:38.530Z,5.83
2019-04-16T02:08:28.336Z,5.70
2019-04-16T02:11:13.050Z,5.77
2019-04-16T02:14:00.164Z,5.33
2019-04-16T02:16:46.961Z,6.00
2019-04-16T02:19:34.116Z,5.70
2019-04-16T02:22:28.961Z,5.93
2019-04-16T02:25:30.054Z,4.87
2019-04-16T02:28:17.265Z,5.60
2019-04-16T02:31:12.845Z,7.28
2019-04-16T02:34:06.832Z,5.73
2019-04-16T02:37:00.857Z,5.10
2019-04-16T02:39:49.583Z,5.60
2019-04-16T02:42:36.026Z,5.93
2019-04-16T02:45:30.499Z,6.00
2019-04-16T02:48:17.871Z,5.57
2019-04-16T02:51:08.660Z,7.00
2019-04-16T02:57:07.642Z,6.07
2019-04-16T03:06:14.436Z,6.37
2019-04-16T03:09:01.798Z,5.97
2019-04-16T03:11:52.645Z,5.57
2019-04-16T03:14:40.335Z,6.57
2019-04-16T03:17:45.071Z,6.30
2019-04-16T03:23:38.161Z,5.87
2019-04-16T03:29:31.246Z,7.87
2019-04-16T03:32:35.294Z,6.00
2019-04-16T03:35:19.032Z,6.40
2019-04-16T03:38:06.638Z,6.10
2019-04-16T03:40:56.101Z,5.83
2019-04-16T03:43:40.722Z,5.20
2019-04-16T03:46:28.219Z,8.27
2019-04-16T03:49:15.333Z,5.90
2019-04-16T03:55:09.196Z,5.83
2019-04-16T04:01:03.488Z,5.27
2019-04-16T04:04:04.545Z,5.43
2019-04-16T04:09:58.863Z,4.93
2019-04-16T04:12:53.207Z,5.60
2019-04-16T04:15:55.119Z,5.40
2019-04-16T04:18:56.413Z,5.57
2019-04-16T04:21:47.032Z,5.70
2019-04-16T04:24:34.742Z,5.63
2019-04-16T04:27:22.784Z,5.83
2019-04-16T04:30:10.123Z,5.90
2019-04-16T04:36:03.597Z,5.00
2019-04-16T04:41:57.266Z,4.67
2019-04-16T04:44:46.852Z,5.53
2019-04-16T04:47:37.478Z,8.15
2019-04-16T04:50:24.580Z,6.70
2019-04-16T04:53:12.397Z,7.50
2019-04-16T04:56:14.732Z,7.03
2019-04-16T04:59:05.182Z,8.68
2019-04-16T05:01:57.126Z,7.87
2019-04-16T05:04:52.476Z,6.77
2019-04-16T05:07:39.617Z,7.23
2019-04-16T05:10:26.715Z,9.25
2019-04-16T05:16:19.247Z,7.00
2019-04-16T05:44:34.857Z,7.53
2019-04-16T06:12:14.396Z,8.10
2019-04-16T06:15:02.738Z,8.27
2019-04-16T06:46:56.064Z,8.10
2019-04-16T06:49:51.041Z,8.67
2019-04-16T06:52:52.647Z,8.13
2019-04-16T06:55:42.989Z,8.00
2019-04-16T06:58:51.145Z,8.40
2019-04-16T07:17:40.474Z,9.20
2019-04-16T07:20:42.253Z,8.97
2019-04-16T07:23:27.439Z,8.67
2019-04-16T07:29:23.754Z,9.50
2019-04-16T07:32:16.770Z,8.73
2019-04-16T07:35:19.426Z,8.30
2019-04-16T07:38:07.471Z,8.60
2019-04-16T07:41:12.884Z,9.03
2019-04-16T07:44:07.885Z,9.25
2019-04-16T07:47:05.756Z,9.02
2019-04-16T07:49:59.819Z,8.93
2019-04-16T07:52:45.639Z,8.43
2019-04-16T07:55:48.292Z,9.05
2019-04-16T07:58:35.321Z,9.45
2019-04-16T08:01:22.442Z,9.03
2019-04-16T08:04:09.246Z,9.95
2019-04-16T08:06:56.372Z,10.13
2019-04-16T08:09:43.155Z,9.23
2019-04-16T08:12:31.028Z,9.17
2019-04-16T08:15:16.537Z,9.57
2019-04-16T08:18:03.266Z,9.45
2019-04-16T08:21:01.229Z,9.10
2019-04-16T08:23:44.613Z,9.48
2019-04-16T08:26:31.877Z,9.13
2019-04-16T08:29:19.491Z,9.40
2019-04-16T08:32:06.201Z,9.85
2019-04-16T08:37:59.258Z,8.95
2019-04-16T08:40:46.952Z,8.77
2019-04-16T08:43:33.424Z,9.40
2019-04-16T08:52:32.002Z,9.23
2019-04-16T08:55:20.519Z,9.40
2019-04-16T08:58:07.493Z,9.05
2019-04-16T09:00:53.994Z,9.23
2019-04-16T09:03:41.038Z,9.13
2019-04-16T09:06:27.795Z,8.90
2019-04-16T09:09:30.751Z,9.25
2019-04-16T09:12:17.933Z,9.00
2019-04-16T09:15:04.703Z,9.40
2019-04-16T09:17:51.385Z,9.05
2019-04-16T09:20:38.549Z,9.43
2019-04-16T09:23:26.726Z,9.55
2019-04-16T09:26:23.686Z,9.50
2019-04-16T09:32:43.461Z,8.68
2019-04-16T09:35:30.840Z,9.00
2019-04-16T09:38:17.499Z,9.00
2019-04-16T09:41:17.779Z,9.32
2019-04-16T09:44:05.412Z,8.00
2019-04-16T09:49:58.882Z,9.13
2019-04-16T09:52:45.688Z,8.93
2019-04-16T09:55:32.724Z,9.50
2019-04-16T09:58:21.723Z,9.30
2019-04-16T10:01:07.167Z,8.45
2019-04-16T10:03:54.332Z,9.23
2019-04-16T10:12:55.021Z,9.23
2019-04-16T10:15:43.093Z,9.15
2019-04-16T10:18:34.674Z,9.32
2019-04-16T10:24:41.920Z,9.98
2019-04-16T10:27:32.246Z,9.10
2019-04-16T10:30:31.094Z,9.98
2019-04-16T10:33:18.457Z,9.73
2019-04-16T10:39:11.608Z,9.27
2019-04-16T10:42:16.986Z,9.70
2019-04-16T10:45:06.841Z,9.00
2019-04-16T10:47:53.635Z,10.10
2019-04-16T10:50:59.185Z,9.43
2019-04-16T10:54:04.531Z,9.20
2019-04-16T10:57:10.505Z,9.60
2019-04-16T10:59:57.712Z,9.68
2019-04-16T11:05:57.829Z,9.77
2019-04-16T11:11:50.467Z,9.15
2019-04-16T11:17:43.938Z,10.13
2019-04-16T11:20:31.232Z,11.40
2019-04-16T11:23:17.988Z,10.10
2019-04-16T11:26:05.488Z,10.30
2019-04-16T11:28:52.883Z,9.57
2019-04-16T11:31:40.032Z,10.88
2019-04-16T11:34:27.242Z,10.73
2019-04-16T11:37:14.777Z,9.45
2019-04-16T11:40:01.483Z,9.48
2019-04-16T11:42:48.126Z,9.65
2019-04-16T11:45:35.197Z,9.30
2019-04-16T11:48:22.200Z,9.75
2019-04-16T11:51:09.267Z,9.00
2019-04-16T11:54:11.933Z,8.93
2019-04-16T11:56:59.324Z,8.82
2019-04-16T11:59:44.206Z,9.35
2019-04-16T12:02:31.622Z,9.35
2019-04-16T12:05:30.675Z,10.38
2019-04-16T12:08:20.389Z,10.15
2019-04-16T12:11:07.267Z,10.45
2019-04-16T12:17:16.431Z,10.15
2019-04-16T12:20:06.930Z,10.18
2019-04-16T12:22:57.223Z,10.35
2019-04-16T12:35:34.827Z,10.52
2019-04-16T12:38:22.418Z,10.07
2019-04-16T12:41:15.016Z,10.05
2019-04-16T12:47:29.510Z,9.80
2019-04-16T12:50:17.430Z,10.23
2019-04-16T12:53:09.878Z,9.60
2019-04-16T12:56:05.946Z,10.70
2019-04-16T12:58:50.344Z,9.93
2019-04-16T13:01:51.282Z,10.32
2019-04-16T13:04:38.602Z,9.80
2019-04-16T13:07:25.305Z,9.75
2019-04-16T13:10:18.479Z,10.07
2019-04-16T13:13:08.148Z,9.23
2019-04-16T13:16:06.815Z,9.98
2019-04-16T13:19:06.934Z,10.75
2019-04-16T13:25:00.318Z,9.63
2019-04-16T13:27:50.547Z,9.38
2019-04-16T13:30:35.231Z,9.90
2019-04-16T13:33:22.565Z,9.18
2019-04-16T13:36:09.770Z,9.43
2019-04-16T13:39:06.116Z,9.95
2019-04-16T13:41:53.313Z,10.25
2019-04-16T13:44:42.553Z,8.82
2019-04-16T13:47:29.255Z,9.27
2019-04-16T13:50:16.105Z,10.02
2019-04-16T13:53:22.953Z,9.43
2019-04-16T13:56:28.172Z,9.05
2019-04-16T13:59:15.798Z,8.90
2019-04-16T14:02:04.207Z,10.07
2019-04-16T14:04:51.091Z,10.45
2019-04-16T14:07:38.086Z,9.65
2019-04-16T14:10:25.230Z,9.70
2019-04-16T14:13:13.623Z,9.73
2019-04-16T14:15:59.245Z,9.25
2019-04-16T14:18:46.176Z,10.23
2019-04-16T14:21:33.366Z,9.25
2019-04-16T14:24:21.805Z,9.35
2019-04-16T14:27:15.889Z,9.48
2019-04-16T14:30:02.773Z,9.30
2019-04-16T14:32:50.045Z,9.73
2019-04-16T14:35:40.042Z,9.43
2019-04-16T14:38:28.029Z,9.75
2019-04-16T14:41:16.156Z,9.63
2019-04-16T14:47:20.199Z,9.18
2019-04-16T14:50:07.625Z,9.07
2019-04-16T14:52:54.512Z,9.13
2019-04-16T14:55:47.155Z,8.68
2019-04-16T14:58:44.133Z,9.43
2019-04-16T15:04:57.801Z,10.18
2019-04-16T15:10:50.699Z,8.95
2019-04-16T15:16:52.667Z,8.65
2019-04-16T15:19:45.856Z,9.50
2019-04-16T15:22:32.687Z,8.35
2019-04-16T15:25:27.946Z,7.53
2019-04-16T15:31:32.652Z,8.15
2019-04-16T15:34:17.847Z,8.48
2019-04-16T15:52:56.963Z,9.15
2019-04-16T15:55:47.395Z,7.55
2019-04-16T15:58:43.456Z,7.50
2019-04-16T16:01:30.877Z,7.57
2019-04-16T16:04:36.232Z,7.72
2019-04-16T16:13:46.394Z,8.02
2019-04-16T16:16:42.010Z,8.13
2019-04-16T16:19:21.417Z,12.93
2019-04-16T16:22:11.935Z,8.48
2019-04-16T16:25:05.876Z,8.35
2019-04-16T16:27:49.952Z,8.80
2019-04-16T16:30:37.208Z,8.93
2019-04-16T16:39:35.995Z,9.05
2019-04-16T16:42:23.550Z,8.88
2019-04-16T16:45:10.848Z,8.98
2019-04-16T16:51:04.079Z,8.48
2019-04-16T16:53:50.568Z,9.27
2019-04-16T16:56:56.367Z,9.55
2019-04-16T17:00:01.534Z,9.35
2019-04-16T17:02:48.913Z,9.60
2019-04-16T17:05:44.911Z,8.50
2019-04-16T17:11:55.685Z,9.38
2019-04-16T17:14:39.640Z,9.52
2019-04-16T17:17:26.777Z,8.82
2019-04-16T17:20:13.562Z,9.80
2019-04-16T17:23:00.379Z,8.82
2019-04-16T17:25:47.644Z,9.53
2019-04-16T17:28:34.405Z,8.70
2019-04-16T17:31:22.535Z,8.70
2019-04-16T17:34:09.460Z,9.27
2019-04-16T17:40:05.563Z,8.93
2019-04-16T17:49:33.942Z,8.25
2019-04-16T17:55:37.718Z,9.50
2019-04-16T17:58:28.157Z,9.82
2019-04-16T18:01:30.600Z,9.35
2019-04-16T18:23:38.761Z,7.57
2019-04-16T18:26:29.137Z,7.62
2019-04-16T18:29:36.651Z,9.07
2019-04-16T18:32:27.685Z,7.93
2019-04-16T18:35:19.033Z,8.57
2019-04-16T18:38:06.571Z,8.27
2019-04-16T19:05:54.371Z,6.50
2019-04-16T19:08:43.181Z,6.68
2019-04-16T19:30:06.912Z,6.82
2019-04-16T19:32:53.890Z,7.00
2019-04-16T20:16:01.054Z,7.10
2019-04-16T20:18:54.644Z,6.67
2019-04-16T20:21:42.392Z,7.23
2019-04-16T20:31:01.923Z,8.40
2019-04-16T20:33:41.727Z,7.57
2019-04-16T20:36:28.815Z,7.10
2019-04-16T20:42:21.809Z,7.30
2019-04-16T21:16:25.043Z,7.17
2019-04-16T21:22:17.824Z,7.70
2019-04-16T21:25:05.109Z,7.13
2019-04-16T21:41:08.773Z,7.13
2019-04-16T22:15:03.175Z,6.80
2019-04-16T22:55:08.865Z,7.30
2019-04-16T22:57:56.447Z,8.47
2019-04-16T23:00:44.371Z,7.57
